Current Weather

Atar

Atar, Mauritania (GQPA)

Report from: Sunday, May 22, 2022 6:00 PM GMT
Current time: Monday, May 23, 2022 8:44 AM GMT

Nearby weather
Weather history
Weather forecast

Temperature41.0°C (105.8°F)
Heat index38.9°C (102.0°F)
Dew point8.0°C (46.4°F)
Winds 10 kts (5.1 m/s, 11.5 mph) North (360°)
Visibility5 mi. (8 km)
Altimeter29.83 in.Hg (1010 mB)
Relative humidity14 %
Density altitude3,180 ft. (969 m)
Flight conditions Marginal Visual Meteorological Conditions
Raw dataGQPA 221800Z 36010KT 8000 NSC 41/08 Q1010
An error has occurred. This application may no longer respond until reloaded. Reload 🗙